sensor_id;sensor_type;location;lat;lon;timestamp;P1;durP1;ratioP1;P2;durP2;ratioP2
37305;SDS011;23193;42.656;21.170;2022-07-19T00:02:03;8.02;;;2.80;;
37305;SDS011;23193;42.656;21.170;2022-07-19T00:04:30;5.57;;;2.50;;
37305;SDS011;23193;42.656;21.170;2022-07-19T00:06:56;10.73;;;2.72;;
37305;SDS011;23193;42.656;21.170;2022-07-19T00:09:22;9.15;;;2.72;;
37305;SDS011;23193;42.656;21.170;2022-07-19T00:11:49;8.57;;;2.88;;
37305;SDS011;23193;42.656;21.170;2022-07-19T00:14:15;8.05;;;2.40;;
37305;SDS011;23193;42.656;21.170;2022-07-19T00:16:41;8.85;;;3.05;;
37305;SDS011;23193;42.656;21.170;2022-07-19T00:19:07;10.02;;;2.83;;
37305;SDS011;23193;42.656;21.170;2022-07-19T00:21:33;11.52;;;3.47;;
37305;SDS011;23193;42.656;21.170;2022-07-19T00:23:59;8.73;;;3.67;;
37305;SDS011;23193;42.656;21.170;2022-07-19T00:26:26;10.38;;;3.72;;
37305;SDS011;23193;42.656;21.170;2022-07-19T00:28:52;14.20;;;3.88;;
37305;SDS011;23193;42.656;21.170;2022-07-19T00:31:20;10.30;;;4.03;;
37305;SDS011;23193;42.656;21.170;2022-07-19T00:33:46;12.25;;;3.35;;
37305;SDS011;23193;42.656;21.170;2022-07-19T00:36:12;11.52;;;4.78;;
37305;SDS011;23193;42.656;21.170;2022-07-19T00:38:38;10.02;;;3.60;;
37305;SDS011;23193;42.656;21.170;2022-07-19T00:41:04;6.53;;;3.47;;
37305;SDS011;23193;42.656;21.170;2022-07-19T00:43:30;8.02;;;3.00;;
37305;SDS011;23193;42.656;21.170;2022-07-19T00:45:56;10.05;;;3.15;;
37305;SDS011;23193;42.656;21.170;2022-07-19T00:48:23;6.53;;;3.35;;
37305;SDS011;23193;42.656;21.170;2022-07-19T00:50:49;14.52;;;3.40;;
37305;SDS011;23193;42.656;21.170;2022-07-19T00:53:16;8.05;;;3.30;;
37305;SDS011;23193;42.656;21.170;2022-07-19T00:55:44;8.57;;;3.42;;
37305;SDS011;23193;42.656;21.170;2022-07-19T00:58:10;12.98;;;3.63;;
37305;SDS011;23193;42.656;21.170;2022-07-19T01:00:38;6.07;;;3.72;;
37305;SDS011;23193;42.656;21.170;2022-07-19T01:03:06;5.70;;;3.67;;
37305;SDS011;23193;42.656;21.170;2022-07-19T01:05:35;7.78;;;4.05;;
37305;SDS011;23193;42.656;21.170;2022-07-19T01:08:01;12.00;;;4.25;;
37305;SDS011;23193;42.656;21.170;2022-07-19T01:10:28;10.05;;;4.10;;
37305;SDS011;23193;42.656;21.170;2022-07-19T01:12:54;9.15;;;3.88;;
37305;SDS011;23193;42.656;21.170;2022-07-19T01:15:24;9.05;;;4.45;;
37305;SDS011;23193;42.656;21.170;2022-07-19T01:17:51;13.57;;;4.50;;
37305;SDS011;23193;42.656;21.170;2022-07-19T01:20:17;12.68;;;4.43;;
37305;SDS011;23193;42.656;21.170;2022-07-19T01:22:45;8.32;;;4.00;;
37305;SDS011;23193;42.656;21.170;2022-07-19T01:25:11;15.18;;;4.07;;
37305;SDS011;23193;42.656;21.170;2022-07-19T01:27:38;5.75;;;3.30;;
37305;SDS011;23193;42.656;21.170;2022-07-19T01:30:09;7.85;;;3.03;;
37305;SDS011;23193;42.656;21.170;2022-07-19T01:32:35;10.13;;;3.80;;
37305;SDS011;23193;42.656;21.170;2022-07-19T01:35:01;9.75;;;3.90;;
37305;SDS011;23193;42.656;21.170;2022-07-19T01:37:27;7.30;;;3.63;;
37305;SDS011;23193;42.656;21.170;2022-07-19T01:39:53;8.85;;;3.60;;
37305;SDS011;23193;42.656;21.170;2022-07-19T01:42:21;10.02;;;3.80;;
37305;SDS011;23193;42.656;21.170;2022-07-19T01:44:48;7.60;;;3.40;;
37305;SDS011;23193;42.656;21.170;2022-07-19T01:47:15;6.35;;;3.53;;
37305;SDS011;23193;42.656;21.170;2022-07-19T01:49:41;10.75;;;3.53;;
37305;SDS011;23193;42.656;21.170;2022-07-19T01:52:07;11.38;;;3.75;;
37305;SDS011;23193;42.656;21.170;2022-07-19T01:54:33;8.63;;;3.72;;
37305;SDS011;23193;42.656;21.170;2022-07-19T01:56:59;9.43;;;4.30;;
37305;SDS011;23193;42.656;21.170;2022-07-19T01:59:25;8.75;;;3.60;;
37305;SDS011;23193;42.656;21.170;2022-07-19T02:01:51;10.88;;;3.83;;
37305;SDS011;23193;42.656;21.170;2022-07-19T02:04:17;5.50;;;3.83;;
37305;SDS011;23193;42.656;21.170;2022-07-19T02:06:43;5.97;;;3.17;;
37305;SDS011;23193;42.656;21.170;2022-07-19T02:09:09;7.30;;;3.08;;
37305;SDS011;23193;42.656;21.170;2022-07-19T02:11:35;7.22;;;2.92;;
37305;SDS011;23193;42.656;21.170;2022-07-19T02:14:02;4.20;;;2.50;;
37305;SDS011;23193;42.656;21.170;2022-07-19T02:16:28;7.70;;;3.08;;
37305;SDS011;23193;42.656;21.170;2022-07-19T02:18:54;4.43;;;2.90;;
37305;SDS011;23193;42.656;21.170;2022-07-19T02:21:20;5.28;;;2.63;;
37305;SDS011;23193;42.656;21.170;2022-07-19T02:23:46;9.02;;;2.50;;
37305;SDS011;23193;42.656;21.170;2022-07-19T02:26:12;6.80;;;3.15;;
37305;SDS011;23193;42.656;21.170;2022-07-19T02:28:38;9.23;;;2.50;;
37305;SDS011;23193;42.656;21.170;2022-07-19T02:31:04;7.05;;;2.60;;
37305;SDS011;23193;42.656;21.170;2022-07-19T02:33:31;9.10;;;2.40;;
37305;SDS011;23193;42.656;21.170;2022-07-19T02:35:57;7.55;;;2.90;;
37305;SDS011;23193;42.656;21.170;2022-07-19T02:38:23;3.38;;;2.35;;
37305;SDS011;23193;42.656;21.170;2022-07-19T02:40:49;5.80;;;3.17;;
37305;SDS011;23193;42.656;21.170;2022-07-19T02:43:15;3.92;;;2.30;;
37305;SDS011;23193;42.656;21.170;2022-07-19T02:45:41;5.85;;;2.42;;
37305;SDS011;23193;42.656;21.170;2022-07-19T02:48:10;10.98;;;2.97;;
37305;SDS011;23193;42.656;21.170;2022-07-19T02:50:37;5.05;;;2.28;;
37305;SDS011;23193;42.656;21.170;2022-07-19T02:53:03;7.03;;;2.85;;
37305;SDS011;23193;42.656;21.170;2022-07-19T02:55:29;9.52;;;2.28;;
37305;SDS011;23193;42.656;21.170;2022-07-19T02:57:56;8.85;;;2.72;;
37305;SDS011;23193;42.656;21.170;2022-07-19T03:00:22;4.38;;;2.83;;
37305;SDS011;23193;42.656;21.170;2022-07-19T03:02:48;9.85;;;2.60;;
37305;SDS011;23193;42.656;21.170;2022-07-19T03:05:14;6.38;;;2.78;;
37305;SDS011;23193;42.656;21.170;2022-07-19T03:07:40;12.57;;;3.28;;
37305;SDS011;23193;42.656;21.170;2022-07-19T03:10:07;14.00;;;2.75;;
37305;SDS011;23193;42.656;21.170;2022-07-19T03:12:33;8.32;;;2.90;;
37305;SDS011;23193;42.656;21.170;2022-07-19T03:14:59;3.17;;;2.47;;
37305;SDS011;23193;42.656;21.170;2022-07-19T03:17:25;5.90;;;2.50;;
37305;SDS011;23193;42.656;21.170;2022-07-19T03:19:51;4.00;;;2.80;;
37305;SDS011;23193;42.656;21.170;2022-07-19T03:22:17;13.93;;;3.17;;
37305;SDS011;23193;42.656;21.170;2022-07-19T03:24:43;4.95;;;3.13;;
37305;SDS011;23193;42.656;21.170;2022-07-19T03:27:09;11.25;;;3.45;;
37305;SDS011;23193;42.656;21.170;2022-07-19T03:29:35;10.27;;;2.92;;
37305;SDS011;23193;42.656;21.170;2022-07-19T03:32:01;10.77;;;2.95;;
37305;SDS011;23193;42.656;21.170;2022-07-19T03:34:28;6.57;;;3.42;;
37305;SDS011;23193;42.656;21.170;2022-07-19T03:36:54;10.90;;;2.78;;
37305;SDS011;23193;42.656;21.170;2022-07-19T03:39:20;11.30;;;3.42;;
37305;SDS011;23193;42.656;21.170;2022-07-19T03:41:46;11.18;;;3.90;;
37305;SDS011;23193;42.656;21.170;2022-07-19T03:44:12;14.13;;;5.40;;
37305;SDS011;23193;42.656;21.170;2022-07-19T03:46:38;11.73;;;5.82;;
37305;SDS011;23193;42.656;21.170;2022-07-19T03:49:04;18.95;;;7.75;;
37305;SDS011;23193;42.656;21.170;2022-07-19T03:51:30;18.08;;;7.72;;
37305;SDS011;23193;42.656;21.170;2022-07-19T03:53:56;18.80;;;9.32;;
37305;SDS011;23193;42.656;21.170;2022-07-19T03:56:22;26.70;;;9.35;;
37305;SDS011;23193;42.656;21.170;2022-07-19T03:58:49;23.45;;;10.18;;
37305;SDS011;23193;42.656;21.170;2022-07-19T04:01:15;24.95;;;10.68;;
37305;SDS011;23193;42.656;21.170;2022-07-19T04:03:46;26.10;;;9.73;;
37305;SDS011;23193;42.656;21.170;2022-07-19T04:06:12;20.38;;;9.73;;
37305;SDS011;23193;42.656;21.170;2022-07-19T04:08:38;22.55;;;9.80;;
37305;SDS011;23193;42.656;21.170;2022-07-19T04:11:04;20.08;;;7.88;;
37305;SDS011;23193;42.656;21.170;2022-07-19T04:13:34;22.65;;;9.10;;
37305;SDS011;23193;42.656;21.170;2022-07-19T04:16:00;20.48;;;8.32;;
37305;SDS011;23193;42.656;21.170;2022-07-19T04:18:26;18.88;;;7.38;;
37305;SDS011;23193;42.656;21.170;2022-07-19T04:20:52;16.50;;;7.97;;
37305;SDS011;23193;42.656;21.170;2022-07-19T04:23:18;13.98;;;6.97;;
37305;SDS011;23193;42.656;21.170;2022-07-19T04:25:44;17.13;;;5.97;;
37305;SDS011;23193;42.656;21.170;2022-07-19T04:28:10;25.77;;;6.03;;
37305;SDS011;23193;42.656;21.170;2022-07-19T04:30:36;13.32;;;5.30;;
37305;SDS011;23193;42.656;21.170;2022-07-19T04:33:02;14.30;;;5.68;;
37305;SDS011;23193;42.656;21.170;2022-07-19T04:35:28;17.15;;;5.20;;
37305;SDS011;23193;42.656;21.170;2022-07-19T04:37:55;18.30;;;4.28;;
37305;SDS011;23193;42.656;21.170;2022-07-19T04:40:21;12.55;;;4.30;;
37305;SDS011;23193;42.656;21.170;2022-07-19T04:42:47;11.00;;;4.57;;
37305;SDS011;23193;42.656;21.170;2022-07-19T04:45:13;11.52;;;5.32;;
37305;SDS011;23193;42.656;21.170;2022-07-19T04:47:39;9.82;;;5.32;;
37305;SDS011;23193;42.656;21.170;2022-07-19T04:50:05;9.07;;;4.75;;
37305;SDS011;23193;42.656;21.170;2022-07-19T04:52:31;15.68;;;4.90;;
37305;SDS011;23193;42.656;21.170;2022-07-19T04:54:57;15.43;;;5.82;;
37305;SDS011;23193;42.656;21.170;2022-07-19T04:57:23;17.77;;;5.22;;
37305;SDS011;23193;42.656;21.170;2022-07-19T04:59:49;15.98;;;5.60;;
37305;SDS011;23193;42.656;21.170;2022-07-19T05:02:15;16.45;;;4.93;;
37305;SDS011;23193;42.656;21.170;2022-07-19T05:04:41;12.75;;;4.63;;
37305;SDS011;23193;42.656;21.170;2022-07-19T05:07:07;12.95;;;5.35;;
37305;SDS011;23193;42.656;21.170;2022-07-19T05:09:33;13.05;;;4.82;;
37305;SDS011;23193;42.656;21.170;2022-07-19T05:11:59;14.50;;;4.90;;
37305;SDS011;23193;42.656;21.170;2022-07-19T05:14:30;14.88;;;5.03;;
37305;SDS011;23193;42.656;21.170;2022-07-19T05:16:56;15.05;;;4.93;;
37305;SDS011;23193;42.656;21.170;2022-07-19T05:19:22;10.38;;;4.25;;
37305;SDS011;23193;42.656;21.170;2022-07-19T05:21:48;13.43;;;4.72;;
37305;SDS011;23193;42.656;21.170;2022-07-19T05:24:15;22.00;;;5.90;;
37305;SDS011;23193;42.656;21.170;2022-07-19T05:26:42;17.85;;;5.22;;
37305;SDS011;23193;42.656;21.170;2022-07-19T05:29:08;16.98;;;4.85;;
37305;SDS011;23193;42.656;21.170;2022-07-19T05:31:34;28.45;;;5.20;;
37305;SDS011;23193;42.656;21.170;2022-07-19T05:34:00;17.27;;;5.28;;
37305;SDS011;23193;42.656;21.170;2022-07-19T05:36:26;24.67;;;4.97;;
37305;SDS011;23193;42.656;21.170;2022-07-19T05:38:53;15.15;;;5.00;;
37305;SDS011;23193;42.656;21.170;2022-07-19T05:41:20;20.95;;;5.88;;
37305;SDS011;23193;42.656;21.170;2022-07-19T05:43:49;14.57;;;4.97;;
37305;SDS011;23193;42.656;21.170;2022-07-19T05:46:16;17.88;;;5.10;;
37305;SDS011;23193;42.656;21.170;2022-07-19T05:48:42;11.90;;;4.47;;
37305;SDS011;23193;42.656;21.170;2022-07-19T05:51:08;17.27;;;5.97;;
37305;SDS011;23193;42.656;21.170;2022-07-19T05:53:35;16.42;;;4.63;;
37305;SDS011;23193;42.656;21.170;2022-07-19T05:56:01;16.00;;;4.57;;
37305;SDS011;23193;42.656;21.170;2022-07-19T05:58:27;9.43;;;4.32;;
37305;SDS011;23193;42.656;21.170;2022-07-19T06:00:53;13.50;;;5.22;;
37305;SDS011;23193;42.656;21.170;2022-07-19T06:03:38;12.27;;;5.07;;
37305;SDS011;23193;42.656;21.170;2022-07-19T06:06:04;12.38;;;5.35;;
37305;SDS011;23193;42.656;21.170;2022-07-19T06:08:30;8.80;;;4.65;;
37305;SDS011;23193;42.656;21.170;2022-07-19T06:10:56;13.40;;;4.75;;
37305;SDS011;23193;42.656;21.170;2022-07-19T06:13:22;7.07;;;4.47;;
37305;SDS011;23193;42.656;21.170;2022-07-19T06:15:48;17.20;;;4.72;;
37305;SDS011;23193;42.656;21.170;2022-07-19T06:18:15;14.13;;;4.63;;
37305;SDS011;23193;42.656;21.170;2022-07-19T06:20:41;11.77;;;4.55;;
37305;SDS011;23193;42.656;21.170;2022-07-19T06:23:07;18.77;;;4.90;;
37305;SDS011;23193;42.656;21.170;2022-07-19T06:25:33;16.10;;;4.35;;
37305;SDS011;23193;42.656;21.170;2022-07-19T06:27:59;14.40;;;4.47;;
37305;SDS011;23193;42.656;21.170;2022-07-19T06:30:25;13.52;;;4.40;;
37305;SDS011;23193;42.656;21.170;2022-07-19T06:32:51;12.88;;;3.97;;
37305;SDS011;23193;42.656;21.170;2022-07-19T06:35:17;12.25;;;4.07;;
37305;SDS011;23193;42.656;21.170;2022-07-19T06:37:43;10.65;;;4.22;;
37305;SDS011;23193;42.656;21.170;2022-07-19T06:40:09;10.45;;;3.78;;
37305;SDS011;23193;42.656;21.170;2022-07-19T06:42:35;12.27;;;4.07;;
37305;SDS011;23193;42.656;21.170;2022-07-19T06:45:02;15.32;;;3.97;;
37305;SDS011;23193;42.656;21.170;2022-07-19T06:47:28;21.25;;;4.50;;
37305;SDS011;23193;42.656;21.170;2022-07-19T06:49:55;16.25;;;4.43;;
37305;SDS011;23193;42.656;21.170;2022-07-19T06:52:21;9.05;;;3.70;;
37305;SDS011;23193;42.656;21.170;2022-07-19T06:54:47;10.63;;;3.30;;
37305;SDS011;23193;42.656;21.170;2022-07-19T06:57:13;10.27;;;3.28;;
37305;SDS011;23193;42.656;21.170;2022-07-19T06:59:39;12.57;;;4.75;;
37305;SDS011;23193;42.656;21.170;2022-07-19T07:02:06;8.40;;;3.83;;
37305;SDS011;23193;42.656;21.170;2022-07-19T07:04:33;8.52;;;3.17;;
37305;SDS011;23193;42.656;21.170;2022-07-19T07:06:59;14.02;;;3.28;;
37305;SDS011;23193;42.656;21.170;2022-07-19T07:09:26;5.18;;;2.83;;
37305;SDS011;23193;42.656;21.170;2022-07-19T07:11:52;12.43;;;3.15;;
37305;SDS011;23193;42.656;21.170;2022-07-19T07:14:18;10.45;;;3.53;;
37305;SDS011;23193;42.656;21.170;2022-07-19T07:16:44;6.82;;;2.92;;
37305;SDS011;23193;42.656;21.170;2022-07-19T07:19:10;16.35;;;3.95;;
37305;SDS011;23193;42.656;21.170;2022-07-19T07:21:36;8.45;;;4.53;;
37305;SDS011;23193;42.656;21.170;2022-07-19T07:24:02;9.63;;;3.25;;
37305;SDS011;23193;42.656;21.170;2022-07-19T07:26:29;10.60;;;3.13;;
37305;SDS011;23193;42.656;21.170;2022-07-19T07:28:55;12.80;;;3.15;;
37305;SDS011;23193;42.656;21.170;2022-07-19T07:31:21;8.07;;;2.65;;
37305;SDS011;23193;42.656;21.170;2022-07-19T07:33:47;9.65;;;3.08;;
37305;SDS011;23193;42.656;21.170;2022-07-19T07:36:13;10.98;;;2.90;;
37305;SDS011;23193;42.656;21.170;2022-07-19T07:38:39;26.10;;;3.13;;
37305;SDS011;23193;42.656;21.170;2022-07-19T07:41:06;7.05;;;2.97;;
37305;SDS011;23193;42.656;21.170;2022-07-19T07:43:32;9.57;;;2.72;;
37305;SDS011;23193;42.656;21.170;2022-07-19T07:45:58;13.27;;;2.90;;
37305;SDS011;23193;42.656;21.170;2022-07-19T07:48:24;8.50;;;2.92;;
37305;SDS011;23193;42.656;21.170;2022-07-19T07:50:51;10.32;;;2.88;;
37305;SDS011;23193;42.656;21.170;2022-07-19T07:53:17;8.38;;;3.38;;
37305;SDS011;23193;42.656;21.170;2022-07-19T07:55:43;10.52;;;2.97;;
37305;SDS011;23193;42.656;21.170;2022-07-19T07:58:09;9.38;;;2.67;;
37305;SDS011;23193;42.656;21.170;2022-07-19T08:00:36;11.43;;;3.28;;
37305;SDS011;23193;42.656;21.170;2022-07-19T08:03:03;6.40;;;2.80;;
37305;SDS011;23193;42.656;21.170;2022-07-19T08:05:29;10.52;;;2.88;;
37305;SDS011;23193;42.656;21.170;2022-07-19T08:07:57;9.80;;;2.85;;
37305;SDS011;23193;42.656;21.170;2022-07-19T08:10:24;9.45;;;2.67;;
37305;SDS011;23193;42.656;21.170;2022-07-19T08:12:51;11.15;;;2.67;;
37305;SDS011;23193;42.656;21.170;2022-07-19T08:15:38;11.40;;;2.95;;
37305;SDS011;23193;42.656;21.170;2022-07-19T08:18:04;12.75;;;2.83;;
37305;SDS011;23193;42.656;21.170;2022-07-19T08:20:31;8.63;;;2.70;;
37305;SDS011;23193;42.656;21.170;2022-07-19T08:22:57;7.25;;;2.70;;
37305;SDS011;23193;42.656;21.170;2022-07-19T08:25:23;8.25;;;2.42;;
37305;SDS011;23193;42.656;21.170;2022-07-19T08:27:49;9.25;;;2.90;;
37305;SDS011;23193;42.656;21.170;2022-07-19T08:30:15;10.38;;;2.97;;
37305;SDS011;23193;42.656;21.170;2022-07-19T08:32:42;12.63;;;3.13;;
37305;SDS011;23193;42.656;21.170;2022-07-19T08:35:08;12.80;;;3.20;;
37305;SDS011;23193;42.656;21.170;2022-07-19T08:37:35;12.57;;;2.30;;
37305;SDS011;23193;42.656;21.170;2022-07-19T08:40:01;10.95;;;2.50;;
37305;SDS011;23193;42.656;21.170;2022-07-19T08:42:28;6.47;;;3.08;;
37305;SDS011;23193;42.656;21.170;2022-07-19T08:44:54;9.32;;;3.70;;
37305;SDS011;23193;42.656;21.170;2022-07-19T08:47:20;7.82;;;3.38;;
37305;SDS011;23193;42.656;21.170;2022-07-19T08:49:47;11.15;;;2.72;;
37305;SDS011;23193;42.656;21.170;2022-07-19T08:52:13;9.93;;;3.17;;
37305;SDS011;23193;42.656;21.170;2022-07-19T08:54:40;6.20;;;3.17;;
37305;SDS011;23193;42.656;21.170;2022-07-19T08:57:06;6.25;;;2.85;;
37305;SDS011;23193;42.656;21.170;2022-07-19T08:59:51;6.55;;;2.50;;
37305;SDS011;23193;42.656;21.170;2022-07-19T09:02:17;6.30;;;2.88;;
37305;SDS011;23193;42.656;21.170;2022-07-19T09:04:43;4.65;;;3.10;;
37305;SDS011;23193;42.656;21.170;2022-07-19T09:07:09;8.52;;;3.63;;
37305;SDS011;23193;42.656;21.170;2022-07-19T09:09:35;7.72;;;2.75;;
37305;SDS011;23193;42.656;21.170;2022-07-19T09:12:02;8.63;;;2.42;;
37305;SDS011;23193;42.656;21.170;2022-07-19T09:14:29;15.27;;;6.93;;
37305;SDS011;23193;42.656;21.170;2022-07-19T09:19:29;9.90;;;2.33;;
37305;SDS011;23193;42.656;21.170;2022-07-19T09:22:11;12.48;;;2.33;;
37305;SDS011;23193;42.656;21.170;2022-07-19T09:24:39;7.32;;;2.58;;
37305;SDS011;23193;42.656;21.170;2022-07-19T09:27:06;4.65;;;2.53;;
37305;SDS011;23193;42.656;21.170;2022-07-19T09:29:34;10.38;;;2.08;;
37305;SDS011;23193;42.656;21.170;2022-07-19T09:32:01;15.27;;;3.72;;
37305;SDS011;23193;42.656;21.170;2022-07-19T09:34:31;4.90;;;1.85;;
37305;SDS011;23193;42.656;21.170;2022-07-19T09:37:13;8.63;;;2.38;;
37305;SDS011;23193;42.656;21.170;2022-07-19T09:39:41;6.10;;;2.47;;
37305;SDS011;23193;42.656;21.170;2022-07-19T09:42:10;5.90;;;2.03;;
37305;SDS011;23193;42.656;21.170;2022-07-19T09:44:36;4.95;;;1.85;;
37305;SDS011;23193;42.656;21.170;2022-07-19T09:47:03;4.28;;;2.00;;
37305;SDS011;23193;42.656;21.170;2022-07-19T09:49:29;8.50;;;2.13;;
37305;SDS011;23193;42.656;21.170;2022-07-19T09:51:55;8.45;;;2.40;;
37305;SDS011;23193;42.656;21.170;2022-07-19T09:54:22;6.82;;;2.08;;
37305;SDS011;23193;42.656;21.170;2022-07-19T09:56:51;7.05;;;2.10;;
37305;SDS011;23193;42.656;21.170;2022-07-19T09:59:18;8.43;;;1.75;;
37305;SDS011;23193;42.656;21.170;2022-07-19T10:01:45;4.55;;;1.70;;
37305;SDS011;23193;42.656;21.170;2022-07-19T10:04:14;9.73;;;2.80;;
37305;SDS011;23193;42.656;21.170;2022-07-19T10:06:40;8.32;;;2.75;;
37305;SDS011;23193;42.656;21.170;2022-07-19T10:09:08;7.75;;;2.33;;
37305;SDS011;23193;42.656;21.170;2022-07-19T10:11:35;4.85;;;2.00;;
37305;SDS011;23193;42.656;21.170;2022-07-19T10:14:01;3.70;;;2.20;;
37305;SDS011;23193;42.656;21.170;2022-07-19T10:19:17;8.55;;;3.03;;
37305;SDS011;23193;42.656;21.170;2022-07-19T10:21:44;5.88;;;1.73;;
37305;SDS011;23193;42.656;21.170;2022-07-19T10:24:11;8.75;;;1.73;;
37305;SDS011;23193;42.656;21.170;2022-07-19T10:26:41;15.48;;;2.70;;
37305;SDS011;23193;42.656;21.170;2022-07-19T10:29:12;8.02;;;2.05;;
37305;SDS011;23193;42.656;21.170;2022-07-19T10:31:40;26.90;;;3.95;;
37305;SDS011;23193;42.656;21.170;2022-07-19T10:34:08;14.82;;;6.57;;
37305;SDS011;23193;42.656;21.170;2022-07-19T10:36:35;3.75;;;1.63;;
37305;SDS011;23193;42.656;21.170;2022-07-19T10:44:29;3.63;;;1.60;;
37305;SDS011;23193;42.656;21.170;2022-07-19T10:46:55;4.05;;;1.83;;
37305;SDS011;23193;42.656;21.170;2022-07-19T10:57:35;4.18;;;1.92;;
37305;SDS011;23193;42.656;21.170;2022-07-19T11:00:06;12.88;;;2.53;;
37305;SDS011;23193;42.656;21.170;2022-07-19T11:02:41;6.35;;;1.80;;
37305;SDS011;23193;42.656;21.170;2022-07-19T11:05:07;6.50;;;2.47;;
37305;SDS011;23193;42.656;21.170;2022-07-19T11:07:33;8.35;;;2.20;;
37305;SDS011;23193;42.656;21.170;2022-07-19T11:09:59;8.82;;;2.88;;
37305;SDS011;23193;42.656;21.170;2022-07-19T11:12:34;6.00;;;1.95;;
37305;SDS011;23193;42.656;21.170;2022-07-19T11:15:03;12.18;;;2.40;;
37305;SDS011;23193;42.656;21.170;2022-07-19T11:17:29;4.95;;;1.95;;
37305;SDS011;23193;42.656;21.170;2022-07-19T11:19:56;2.50;;;1.65;;
37305;SDS011;23193;42.656;21.170;2022-07-19T11:22:23;4.57;;;2.08;;
37305;SDS011;23193;42.656;21.170;2022-07-19T11:24:49;4.90;;;1.80;;
37305;SDS011;23193;42.656;21.170;2022-07-19T11:27:15;14.60;;;2.67;;
37305;SDS011;23193;42.656;21.170;2022-07-19T11:29:54;7.10;;;2.28;;
37305;SDS011;23193;42.656;21.170;2022-07-19T11:32:20;3.75;;;1.80;;
37305;SDS011;23193;42.656;21.170;2022-07-19T11:35:00;10.15;;;2.20;;
37305;SDS011;23193;42.656;21.170;2022-07-19T11:37:28;5.00;;;1.83;;
37305;SDS011;23193;42.656;21.170;2022-07-19T11:39:54;11.07;;;2.28;;
37305;SDS011;23193;42.656;21.170;2022-07-19T11:44:54;13.85;;;2.83;;
37305;SDS011;23193;42.656;21.170;2022-07-19T11:47:20;8.27;;;2.17;;
37305;SDS011;23193;42.656;21.170;2022-07-19T11:49:47;26.83;;;3.70;;
37305;SDS011;23193;42.656;21.170;2022-07-19T11:52:13;9.02;;;1.75;;
37305;SDS011;23193;42.656;21.170;2022-07-19T11:54:39;24.33;;;2.42;;
37305;SDS011;23193;42.656;21.170;2022-07-19T11:57:05;8.77;;;2.40;;
37305;SDS011;23193;42.656;21.170;2022-07-19T11:59:31;3.55;;;1.70;;
37305;SDS011;23193;42.656;21.170;2022-07-19T12:01:57;4.10;;;1.80;;
37305;SDS011;23193;42.656;21.170;2022-07-19T12:04:23;10.73;;;2.13;;
37305;SDS011;23193;42.656;21.170;2022-07-19T12:06:50;15.45;;;2.00;;
37305;SDS011;23193;42.656;21.170;2022-07-19T12:09:27;8.68;;;2.08;;
37305;SDS011;23193;42.656;21.170;2022-07-19T12:11:56;21.13;;;2.30;;
37305;SDS011;23193;42.656;21.170;2022-07-19T12:16:49;3.55;;;1.60;;
37305;SDS011;23193;42.656;21.170;2022-07-19T12:19:15;16.92;;;2.10;;
37305;SDS011;23193;42.656;21.170;2022-07-19T12:21:44;24.58;;;2.45;;
37305;SDS011;23193;42.656;21.170;2022-07-19T12:24:15;12.05;;;1.98;;
37305;SDS011;23193;42.656;21.170;2022-07-19T12:26:42;4.03;;;1.90;;
37305;SDS011;23193;42.656;21.170;2022-07-19T12:31:44;6.53;;;1.83;;
37305;SDS011;23193;42.656;21.170;2022-07-19T12:34:11;10.18;;;2.67;;
37305;SDS011;23193;42.656;21.170;2022-07-19T12:36:37;7.53;;;2.20;;
37305;SDS011;23193;42.656;21.170;2022-07-19T12:39:04;5.75;;;2.05;;
37305;SDS011;23193;42.656;21.170;2022-07-19T12:41:30;5.68;;;1.63;;
37305;SDS011;23193;42.656;21.170;2022-07-19T12:43:56;4.95;;;2.00;;
37305;SDS011;23193;42.656;21.170;2022-07-19T12:46:22;8.25;;;2.13;;
37305;SDS011;23193;42.656;21.170;2022-07-19T12:48:48;4.55;;;2.08;;
37305;SDS011;23193;42.656;21.170;2022-07-19T12:51:14;10.98;;;2.38;;
37305;SDS011;23193;42.656;21.170;2022-07-19T12:53:40;11.13;;;2.38;;
37305;SDS011;23193;42.656;21.170;2022-07-19T12:56:06;10.05;;;2.70;;
37305;SDS011;23193;42.656;21.170;2022-07-19T12:58:32;13.73;;;2.80;;
37305;SDS011;23193;42.656;21.170;2022-07-19T13:01:17;5.82;;;1.95;;
37305;SDS011;23193;42.656;21.170;2022-07-19T13:03:43;7.55;;;2.83;;
37305;SDS011;23193;42.656;21.170;2022-07-19T13:06:09;3.97;;;2.20;;
37305;SDS011;23193;42.656;21.170;2022-07-19T13:08:35;2.80;;;1.80;;
37305;SDS011;23193;42.656;21.170;2022-07-19T13:11:01;13.18;;;2.50;;
37305;SDS011;23193;42.656;21.170;2022-07-19T13:13:27;6.82;;;2.22;;
37305;SDS011;23193;42.656;21.170;2022-07-19T13:15:54;16.80;;;2.58;;
37305;SDS011;23193;42.656;21.170;2022-07-19T13:18:20;7.78;;;1.90;;
37305;SDS011;23193;42.656;21.170;2022-07-19T13:20:47;4.60;;;2.00;;
37305;SDS011;23193;42.656;21.170;2022-07-19T13:23:13;9.70;;;2.20;;
37305;SDS011;23193;42.656;21.170;2022-07-19T13:25:39;5.32;;;1.90;;
37305;SDS011;23193;42.656;21.170;2022-07-19T13:28:05;3.53;;;2.50;;
37305;SDS011;23193;42.656;21.170;2022-07-19T13:30:31;8.05;;;2.22;;
37305;SDS011;23193;42.656;21.170;2022-07-19T13:32:57;3.90;;;1.88;;
37305;SDS011;23193;42.656;21.170;2022-07-19T13:35:23;4.40;;;2.17;;
37305;SDS011;23193;42.656;21.170;2022-07-19T13:37:49;7.70;;;2.00;;
37305;SDS011;23193;42.656;21.170;2022-07-19T13:40:15;4.15;;;2.08;;
37305;SDS011;23193;42.656;21.170;2022-07-19T13:42:41;5.65;;;1.90;;
37305;SDS011;23193;42.656;21.170;2022-07-19T13:45:08;4.05;;;2.10;;
37305;SDS011;23193;42.656;21.170;2022-07-19T13:47:34;4.35;;;1.88;;
37305;SDS011;23193;42.656;21.170;2022-07-19T13:50:02;11.80;;;2.40;;
37305;SDS011;23193;42.656;21.170;2022-07-19T13:52:29;7.47;;;2.38;;
37305;SDS011;23193;42.656;21.170;2022-07-19T13:54:55;10.10;;;2.15;;
37305;SDS011;23193;42.656;21.170;2022-07-19T13:57:21;3.13;;;1.98;;
37305;SDS011;23193;42.656;21.170;2022-07-19T13:59:47;4.88;;;1.95;;
37305;SDS011;23193;42.656;21.170;2022-07-19T14:02:13;6.03;;;2.00;;
37305;SDS011;23193;42.656;21.170;2022-07-19T14:04:39;7.93;;;1.90;;
37305;SDS011;23193;42.656;21.170;2022-07-19T14:07:05;3.13;;;1.60;;
37305;SDS011;23193;42.656;21.170;2022-07-19T14:09:31;5.35;;;2.00;;
37305;SDS011;23193;42.656;21.170;2022-07-19T14:11:58;6.65;;;1.63;;
37305;SDS011;23193;42.656;21.170;2022-07-19T14:14:25;10.13;;;2.05;;
37305;SDS011;23193;42.656;21.170;2022-07-19T14:16:51;4.68;;;1.98;;
37305;SDS011;23193;42.656;21.170;2022-07-19T14:19:17;6.00;;;2.10;;
37305;SDS011;23193;42.656;21.170;2022-07-19T14:21:43;3.75;;;2.00;;
37305;SDS011;23193;42.656;21.170;2022-07-19T14:24:10;5.05;;;2.28;;
37305;SDS011;23193;42.656;21.170;2022-07-19T14:26:36;8.48;;;2.22;;
37305;SDS011;23193;42.656;21.170;2022-07-19T14:29:02;2.53;;;1.60;;
37305;SDS011;23193;42.656;21.170;2022-07-19T14:31:28;7.20;;;2.00;;
37305;SDS011;23193;42.656;21.170;2022-07-19T14:33:54;3.70;;;1.80;;
37305;SDS011;23193;42.656;21.170;2022-07-19T14:36:20;3.53;;;2.00;;
37305;SDS011;23193;42.656;21.170;2022-07-19T14:38:46;22.95;;;2.83;;
37305;SDS011;23193;42.656;21.170;2022-07-19T14:41:12;4.47;;;2.10;;
37305;SDS011;23193;42.656;21.170;2022-07-19T14:43:38;7.13;;;2.17;;
37305;SDS011;23193;42.656;21.170;2022-07-19T14:46:05;8.43;;;2.20;;
37305;SDS011;23193;42.656;21.170;2022-07-19T14:48:32;9.05;;;2.03;;
37305;SDS011;23193;42.656;21.170;2022-07-19T14:50:58;11.80;;;2.08;;
37305;SDS011;23193;42.656;21.170;2022-07-19T14:53:24;3.90;;;1.95;;